createdAt,value
2017-11-08T00:00:46.889Z,81.10
2017-11-08T00:03:15.002Z,81.10
2017-11-08T00:05:43.142Z,80.60
2017-11-08T00:08:14.174Z,80.30
2017-11-08T00:10:42.315Z,80.30
2017-11-08T00:13:10.432Z,80.60
2017-11-08T00:15:38.630Z,80.80
2017-11-08T00:18:06.746Z,80.70
2017-11-08T00:20:35.653Z,80.80
2017-11-08T00:23:04.542Z,80.70
2017-11-08T00:25:33.447Z,80.80
2017-11-08T00:28:01.562Z,80.80
2017-11-08T00:30:29.726Z,80.60
2017-11-08T00:32:57.854Z,80.40
2017-11-08T00:35:26.786Z,80.70
2017-11-08T00:37:54.906Z,80.70
2017-11-08T00:40:23.819Z,80.60
2017-11-08T00:42:51.919Z,80.60
2017-11-08T00:45:20.066Z,80.70
2017-11-08T00:47:48.184Z,80.90
2017-11-08T00:50:16.340Z,80.80
2017-11-08T00:52:44.466Z,80.90
2017-11-08T00:55:13.362Z,81.90
2017-11-08T00:57:48.054Z,81.80
2017-11-08T01:00:16.185Z,81.80
2017-11-08T01:02:44.327Z,81.50
2017-11-08T01:05:13.196Z,81.30
2017-11-08T01:07:41.349Z,81.30
2017-11-08T01:10:09.467Z,81.20
2017-11-08T01:12:38.366Z,82.00
2017-11-08T01:15:07.254Z,81.90
2017-11-08T01:17:36.153Z,81.80
2017-11-08T01:20:04.263Z,81.80
2017-11-08T01:22:32.397Z,82.00
2017-11-08T01:25:00.514Z,82.20
2017-11-08T01:27:28.652Z,81.80
2017-11-08T01:29:56.769Z,82.20
2017-11-08T01:32:24.901Z,82.10
2017-11-08T01:34:53.021Z,82.20
2017-11-08T01:37:41.964Z,82.20
2017-11-08T01:40:10.089Z,81.50
2017-11-08T01:42:38.993Z,81.70
2017-11-08T01:45:07.930Z,81.70
2017-11-08T01:47:36.066Z,81.70
2017-11-08T01:50:04.180Z,81.70
2017-11-08T01:52:32.321Z,81.50
2017-11-08T01:55:00.442Z,81.80
2017-11-08T01:57:28.604Z,81.60
2017-11-08T01:59:56.728Z,81.80
2017-11-08T02:02:24.877Z,81.70
2017-11-08T02:04:53.759Z,82.10
2017-11-08T02:07:21.897Z,82.10
2017-11-08T02:09:50.005Z,82.20
2017-11-08T02:12:18.927Z,80.80
2017-11-08T02:14:47.050Z,80.70
2017-11-08T02:17:15.190Z,80.90
2017-11-08T02:19:44.088Z,81.00
2017-11-08T02:22:12.204Z,81.00
2017-11-08T02:24:40.350Z,80.90
2017-11-08T02:27:08.474Z,80.80
2017-11-08T02:29:36.610Z,81.20
2017-11-08T02:32:04.717Z,81.40
2017-11-08T02:34:32.840Z,81.50
2017-11-08T02:37:00.951Z,81.50
2017-11-08T02:39:30.222Z,80.60
2017-11-08T02:41:58.342Z,81.20
2017-11-08T02:44:26.498Z,81.00
2017-11-08T02:46:58.399Z,81.40
2017-11-08T02:49:26.541Z,81.70
2017-11-08T02:51:55.446Z,81.60
2017-11-08T02:54:23.589Z,81.60
2017-11-08T02:56:52.475Z,82.30
2017-11-08T02:59:20.617Z,82.30
2017-11-08T03:01:48.742Z,82.50
2017-11-08T03:04:16.886Z,82.50
2017-11-08T03:06:45.006Z,82.20
2017-11-08T03:09:13.156Z,82.30
2017-11-08T03:11:42.045Z,82.70
2017-11-08T03:14:10.958Z,82.20
2017-11-08T03:16:39.085Z,82.10
2017-11-08T03:19:07.249Z,81.90
2017-11-08T03:21:35.368Z,82.00
2017-11-08T03:24:03.475Z,82.10
2017-11-08T03:26:31.627Z,82.00
2017-11-08T03:28:59.736Z,81.80
2017-11-08T03:31:27.869Z,81.50
2017-11-08T03:33:55.984Z,81.80
2017-11-08T03:36:24.125Z,81.90
2017-11-08T03:38:52.259Z,81.40
2017-11-08T03:41:21.159Z,81.40
2017-11-08T03:43:50.023Z,81.70
2017-11-08T03:46:18.190Z,81.50
2017-11-08T03:48:46.304Z,81.60
2017-11-08T03:51:14.435Z,81.80
2017-11-08T03:53:42.565Z,80.80
2017-11-08T03:56:10.697Z,80.50
2017-11-08T03:58:38.829Z,80.80
2017-11-08T04:01:06.985Z,80.80
2017-11-08T04:03:35.093Z,80.40
2017-11-08T04:06:03.246Z,80.60
2017-11-08T04:08:31.361Z,80.10
2017-11-08T04:10:59.516Z,79.50
2017-11-08T04:13:27.638Z,78.90
2017-11-08T04:15:55.776Z,78.40
2017-11-08T04:18:23.900Z,78.20
2017-11-08T04:20:52.043Z,78.60
2017-11-08T04:23:20.927Z,78.40
2017-11-08T04:25:49.850Z,78.20
2017-11-08T04:28:17.956Z,78.40
2017-11-08T04:30:46.074Z,78.70
2017-11-08T04:33:14.982Z,78.10
2017-11-08T04:35:43.089Z,78.10
2017-11-08T04:38:11.230Z,78.40
2017-11-08T04:40:39.354Z,79.00
2017-11-08T04:43:07.506Z,79.20
2017-11-08T04:45:35.630Z,79.10
2017-11-08T04:48:04.535Z,80.00
2017-11-08T04:50:32.640Z,80.00
2017-11-08T04:53:00.806Z,80.30
2017-11-08T04:55:28.926Z,80.20
2017-11-08T04:57:57.073Z,79.90
2017-11-08T05:00:25.207Z,79.10
2017-11-08T05:02:53.355Z,78.00
2017-11-08T05:05:22.226Z,77.70
2017-11-08T05:07:50.371Z,77.60
2017-11-08T05:10:18.489Z,78.80
2017-11-08T05:12:47.398Z,77.70
2017-11-08T05:15:15.529Z,77.70
2017-11-08T05:17:43.656Z,78.00
2017-11-08T05:20:11.769Z,78.20
2017-11-08T05:22:39.893Z,78.00
2017-11-08T05:25:08.005Z,78.50
2017-11-08T05:27:36.139Z,79.50
2017-11-08T05:30:04.259Z,79.60
2017-11-08T05:32:32.404Z,79.30
2017-11-08T05:35:00.517Z,78.60
2017-11-08T05:37:28.669Z,78.70
2017-11-08T05:39:56.798Z,78.50
2017-11-08T05:42:25.697Z,78.30
2017-11-08T05:44:53.813Z,78.30
2017-11-08T05:47:21.959Z,78.10
2017-11-08T05:49:50.093Z,78.60
2017-11-08T05:52:18.237Z,78.30
2017-11-08T05:54:46.344Z,78.70
2017-11-08T05:57:15.272Z,77.70
2017-11-08T05:59:43.403Z,77.70
2017-11-08T06:02:11.517Z,78.20
2017-11-08T06:04:39.647Z,78.80
2017-11-08T06:07:07.786Z,78.90
2017-11-08T06:09:35.937Z,77.50
2017-11-08T06:12:04.068Z,77.90
2017-11-08T06:14:32.963Z,77.50
2017-11-08T06:17:01.835Z,77.90
2017-11-08T06:19:29.969Z,77.90
2017-11-08T06:21:58.094Z,77.30
2017-11-08T06:24:26.255Z,76.90
2017-11-08T06:26:54.389Z,76.70
2017-11-08T06:29:22.526Z,76.10
2017-11-08T06:31:51.425Z,77.00
2017-11-08T06:34:20.344Z,76.40
2017-11-08T06:36:48.461Z,76.40
2017-11-08T06:39:16.585Z,76.00
2017-11-08T06:41:44.699Z,74.20
2017-11-08T06:44:12.859Z,74.00
2017-11-08T06:46:40.975Z,75.70
2017-11-08T06:49:09.105Z,75.70
2017-11-08T06:51:37.218Z,76.50
2017-11-08T06:54:07.917Z,75.40
2017-11-08T06:56:36.038Z,75.50
2017-11-08T06:59:04.944Z,77.10
2017-11-08T07:01:33.061Z,77.10
2017-11-08T07:04:01.168Z,76.00
2017-11-08T07:06:30.088Z,76.50
2017-11-08T07:08:58.225Z,76.50
2017-11-08T07:11:27.164Z,76.30
2017-11-08T07:13:55.275Z,76.30
2017-11-08T07:16:23.422Z,76.40
2017-11-08T07:18:51.529Z,76.50
2017-11-08T07:21:19.670Z,77.00
2017-11-08T07:23:47.768Z,76.90
2017-11-08T07:26:15.914Z,76.30
2017-11-08T07:28:44.025Z,76.10
2017-11-08T07:31:12.918Z,76.50
2017-11-08T07:33:41.817Z,76.30
2017-11-08T07:36:10.737Z,74.60
2017-11-08T07:38:38.858Z,75.50
2017-11-08T07:41:07.001Z,74.20
2017-11-08T07:43:35.122Z,74.20
2017-11-08T07:46:04.016Z,74.80
2017-11-08T07:48:32.883Z,76.30
2017-11-08T07:51:01.020Z,76.30
2017-11-08T07:53:29.148Z,76.50
2017-11-08T07:56:02.969Z,73.50
2017-11-08T07:58:31.089Z,73.40
2017-11-08T08:00:59.247Z,73.40
2017-11-08T08:03:27.360Z,73.60
2017-11-08T08:05:55.512Z,73.40
2017-11-08T08:08:23.636Z,73.70
2017-11-08T08:10:51.784Z,73.60
2017-11-08T08:13:21.083Z,74.20
2017-11-08T08:15:49.233Z,74.20
2017-11-08T08:18:17.360Z,74.30
2017-11-08T08:20:45.513Z,73.90
2017-11-08T08:23:14.399Z,74.40
2017-11-08T08:25:44.206Z,74.40
2017-11-08T08:28:12.321Z,74.40
2017-11-08T08:30:40.465Z,76.00
2017-11-08T08:33:09.347Z,75.70
2017-11-08T08:35:37.467Z,75.60
2017-11-08T08:38:05.590Z,75.50
2017-11-08T08:40:33.734Z,75.80
2017-11-08T08:43:01.854Z,74.30
2017-11-08T08:45:30.765Z,74.00
2017-11-08T08:47:58.886Z,74.00
2017-11-08T08:50:27.026Z,74.80
2017-11-08T08:52:55.154Z,75.80
2017-11-08T08:55:24.068Z,74.20
2017-11-08T08:57:52.193Z,74.20
2017-11-08T09:00:21.121Z,74.20
2017-11-08T09:02:50.009Z,74.80
2017-11-08T09:05:18.926Z,73.90
2017-11-08T09:07:47.059Z,73.90
2017-11-08T09:10:15.211Z,73.90
2017-11-08T09:12:43.330Z,74.20
2017-11-08T09:15:11.479Z,74.50
2017-11-08T09:17:39.625Z,75.50
2017-11-08T09:20:07.751Z,75.60
2017-11-08T09:22:35.926Z,75.70
2017-11-08T09:25:04.044Z,75.50
2017-11-08T09:27:32.188Z,75.50
2017-11-08T09:30:00.306Z,75.00
2017-11-08T09:32:28.451Z,74.90
2017-11-08T09:34:59.018Z,75.00
2017-11-08T09:37:33.607Z,76.00
2017-11-08T09:40:01.746Z,76.00
2017-11-08T09:42:31.681Z,76.80
2017-11-08T09:44:59.806Z,76.30
2017-11-08T09:47:28.705Z,75.40
2017-11-08T09:50:01.395Z,75.10
2017-11-08T09:52:30.302Z,75.30
2017-11-08T09:54:58.413Z,75.30
2017-11-08T09:57:26.544Z,74.20
2017-11-08T09:59:54.664Z,74.50
2017-11-08T10:02:22.788Z,73.70
2017-11-08T10:04:50.921Z,73.60
2017-11-08T10:07:19.136Z,72.80
2017-11-08T10:09:52.093Z,72.60
2017-11-08T10:12:20.193Z,71.40
2017-11-08T10:14:48.396Z,72.10
2017-11-08T10:17:16.527Z,71.40
2017-11-08T10:19:45.420Z,71.70
2017-11-08T10:22:13.569Z,71.70
2017-11-08T10:24:42.474Z,71.80
2017-11-08T10:27:11.381Z,73.40
2017-11-08T10:29:39.666Z,73.40
2017-11-08T10:32:07.800Z,73.20
2017-11-08T10:34:35.924Z,72.80
2017-11-08T10:37:04.105Z,72.90
2017-11-08T10:39:32.215Z,72.80
2017-11-08T10:44:29.254Z,72.60
2017-11-08T10:46:57.407Z,72.60
2017-11-08T10:49:31.240Z,72.40
2017-11-08T10:52:00.137Z,73.60
2017-11-08T10:54:30.887Z,74.30
2017-11-08T10:56:59.045Z,74.30
2017-11-08T10:59:27.956Z,73.70
2017-11-08T11:01:56.084Z,73.70
2017-11-08T11:04:24.220Z,73.60
2017-11-08T11:06:52.353Z,73.60
2017-11-08T11:09:23.197Z,73.60
2017-11-08T11:11:52.090Z,73.40
2017-11-08T11:14:21.002Z,73.20
2017-11-08T11:16:49.118Z,73.20
2017-11-08T11:19:21.186Z,73.30
2017-11-08T11:21:59.221Z,73.40
2017-11-08T11:24:33.851Z,73.70
2017-11-08T11:27:08.229Z,73.80
2017-11-08T11:29:36.390Z,73.80
2017-11-08T11:32:04.518Z,73.40
2017-11-08T11:34:33.417Z,74.20
2017-11-08T11:37:02.303Z,74.70
2017-11-08T11:39:37.662Z,74.70
2017-11-08T11:42:08.703Z,74.70
2017-11-08T11:44:36.839Z,75.10
2017-11-08T11:47:04.999Z,76.70
2017-11-08T11:49:37.043Z,75.30
2017-11-08T11:52:05.206Z,76.70
2017-11-08T11:54:33.350Z,76.80
2017-11-08T11:57:02.239Z,75.80
2017-11-08T11:59:31.146Z,75.60
2017-11-08T12:01:59.268Z,76.60
2017-11-08T12:04:27.415Z,76.60
2017-11-08T12:06:55.540Z,76.60
2017-11-08T12:09:23.686Z,76.40
2017-11-08T12:11:51.825Z,75.60
2017-11-08T12:14:19.987Z,75.40
2017-11-08T12:16:48.112Z,74.90
2017-11-08T12:19:16.260Z,76.60
2017-11-08T12:21:44.376Z,77.00
2017-11-08T12:24:12.524Z,76.70
2017-11-08T12:26:40.646Z,74.70
2017-11-08T12:29:08.839Z,74.20
2017-11-08T12:31:36.971Z,73.90
2017-11-08T12:34:05.119Z,73.70
2017-11-08T12:36:33.238Z,73.10
2017-11-08T12:39:02.119Z,73.20
2017-11-08T12:41:31.038Z,73.70
2017-11-08T12:43:59.161Z,73.70
2017-11-08T12:46:27.310Z,74.20
2017-11-08T12:48:56.330Z,74.20
2017-11-08T12:51:24.486Z,74.20
2017-11-08T12:53:52.622Z,73.50
2017-11-08T12:56:20.762Z,74.50
2017-11-08T12:58:48.881Z,74.60
2017-11-08T13:01:17.027Z,74.00
2017-11-08T13:03:45.911Z,73.80
2017-11-08T13:06:14.817Z,73.30
2017-11-08T13:08:42.947Z,73.30
2017-11-08T13:11:16.635Z,72.70
2017-11-08T13:13:44.772Z,72.90
2017-11-08T13:16:12.929Z,73.20
2017-11-08T13:18:41.111Z,72.90
2017-11-08T13:21:10.042Z,72.50
2017-11-08T13:23:38.169Z,72.50
2017-11-08T13:26:07.490Z,73.30
2017-11-08T13:28:35.611Z,73.30
2017-11-08T13:31:03.813Z,73.40
2017-11-08T13:33:32.706Z,73.90
2017-11-08T13:36:01.631Z,73.90
2017-11-08T13:38:29.781Z,73.90
2017-11-08T13:40:59.088Z,73.60
2017-11-08T13:43:27.219Z,73.70
2017-11-08T13:45:55.379Z,74.00
2017-11-08T13:48:23.518Z,74.30
2017-11-08T13:50:51.652Z,74.60
2017-11-08T13:53:19.807Z,74.70
2017-11-08T13:55:48.904Z,73.70
2017-11-08T13:58:17.811Z,73.30
2017-11-08T14:00:45.967Z,73.40
2017-11-08T14:03:14.080Z,73.90
2017-11-08T14:05:42.984Z,74.80
2017-11-08T14:08:11.153Z,74.80
2017-11-08T14:10:39.280Z,75.20
2017-11-08T14:13:07.411Z,74.70
2017-11-08T14:15:35.543Z,75.20
2017-11-08T14:18:04.504Z,73.70
2017-11-08T14:20:32.633Z,73.70
2017-11-08T14:23:01.550Z,73.30
2017-11-08T14:25:29.671Z,73.30
2017-11-08T14:27:57.824Z,73.80
2017-11-08T14:30:25.953Z,73.60
2017-11-08T14:32:54.101Z,73.30
2017-11-08T14:35:22.242Z,73.40
2017-11-08T14:37:50.396Z,73.60
2017-11-08T14:40:18.522Z,74.20
2017-11-08T14:42:47.607Z,74.10
2017-11-08T14:45:15.739Z,73.60
2017-11-08T14:47:43.895Z,73.60
2017-11-08T14:50:12.791Z,74.00
2017-11-08T14:52:40.952Z,73.90
2017-11-08T14:55:11.763Z,74.90
2017-11-08T14:57:39.930Z,74.90
2017-11-08T15:00:08.087Z,74.90
2017-11-08T15:02:37.177Z,74.80
2017-11-08T15:05:05.838Z,74.60
2017-11-08T15:07:33.994Z,74.20
2017-11-08T15:10:02.902Z,73.80
2017-11-08T15:12:36.748Z,73.80
2017-11-08T15:15:11.308Z,74.20
2017-11-08T15:17:40.230Z,74.30
2017-11-08T15:20:09.649Z,74.10
2017-11-08T15:22:37.867Z,74.10
2017-11-08T15:25:11.589Z,73.90
2017-11-08T15:27:40.125Z,73.90
2017-11-08T15:30:08.258Z,73.80
2017-11-08T15:32:37.378Z,74.20
2017-11-08T15:35:05.520Z,74.30
2017-11-08T15:37:33.679Z,74.40
2017-11-08T15:40:02.625Z,74.30
2017-11-08T15:42:30.871Z,74.30
2017-11-08T15:44:59.539Z,74.40
2017-11-08T15:47:28.472Z,76.40
2017-11-08T15:49:56.638Z,76.40
2017-11-08T15:52:24.797Z,75.00
2017-11-08T15:54:52.989Z,75.30
2017-11-08T15:57:24.031Z,75.20
2017-11-08T15:59:52.617Z,74.90
2017-11-08T16:02:23.231Z,75.00
2017-11-08T16:04:51.420Z,74.90
2017-11-08T16:07:20.840Z,74.50
2017-11-08T16:09:50.516Z,74.70
2017-11-08T16:12:20.369Z,74.70
2017-11-08T16:14:50.505Z,74.90
2017-11-08T16:17:22.015Z,75.50
2017-11-08T16:19:51.774Z,75.30
2017-11-08T16:22:24.554Z,77.00
2017-11-08T16:24:54.546Z,77.00
2017-11-08T16:27:24.390Z,77.00
2017-11-08T16:29:54.162Z,77.50
2017-11-08T16:32:26.389Z,78.20
2017-11-08T16:34:56.657Z,78.40
2017-11-08T16:37:26.492Z,78.40
2017-11-08T16:39:54.836Z,78.20
2017-11-08T16:42:22.985Z,78.30
2017-11-08T16:44:51.206Z,77.70
2017-11-08T16:47:20.144Z,77.70
2017-11-08T16:49:49.089Z,77.60
2017-11-08T16:52:17.233Z,77.60
2017-11-08T16:54:45.411Z,77.60
2017-11-08T16:57:13.554Z,77.90
2017-11-08T16:59:42.499Z,78.00
2017-11-08T17:02:10.648Z,77.90
2017-11-08T17:04:38.805Z,78.10
2017-11-08T17:07:06.941Z,78.30
2017-11-08T17:09:35.091Z,78.20
2017-11-08T17:12:04.006Z,78.70
2017-11-08T17:14:32.152Z,78.60
2017-11-08T17:17:01.044Z,78.40
2017-11-08T17:19:29.969Z,78.20
2017-11-08T17:21:58.099Z,78.20
2017-11-08T17:24:26.214Z,78.30
2017-11-08T17:26:54.364Z,78.40
2017-11-08T17:29:22.494Z,78.40
2017-11-08T17:31:50.649Z,78.20
2017-11-08T17:34:18.793Z,78.20
2017-11-08T17:36:46.954Z,78.30
2017-11-08T17:39:15.840Z,78.50
2017-11-08T17:41:44.759Z,78.70
2017-11-08T17:44:12.904Z,78.60
2017-11-08T17:46:41.805Z,78.50
2017-11-08T17:49:09.923Z,78.50
2017-11-08T17:51:38.068Z,78.40
2017-11-08T17:54:06.191Z,78.60
2017-11-08T17:56:34.330Z,79.00
2017-11-08T17:59:02.467Z,79.00
2017-11-08T18:01:31.398Z,79.30
2017-11-08T18:03:59.524Z,79.30
2017-11-08T18:06:28.430Z,79.00
2017-11-08T18:08:56.560Z,79.00
2017-11-08T18:11:24.754Z,78.80
2017-11-08T18:13:53.666Z,79.20
2017-11-08T18:16:22.592Z,79.10
2017-11-08T18:18:50.715Z,79.00
2017-11-08T18:21:19.632Z,78.90
2017-11-08T18:23:47.767Z,78.90
2017-11-08T18:26:15.939Z,79.00
2017-11-08T18:28:46.225Z,79.50
2017-11-08T18:31:14.535Z,79.90
2017-11-08T18:33:42.684Z,80.00
2017-11-08T18:36:10.847Z,79.80
2017-11-08T18:38:39.012Z,79.80
2017-11-08T18:41:07.163Z,79.80
2017-11-08T18:43:36.070Z,79.60
2017-11-08T18:46:04.203Z,79.50
2017-11-08T18:48:33.137Z,78.90
2017-11-08T18:51:01.272Z,78.90
2017-11-08T18:53:30.191Z,79.30
2017-11-08T18:55:58.328Z,79.20
2017-11-08T18:58:26.483Z,79.30
2017-11-08T19:00:54.619Z,79.60
2017-11-08T19:03:22.783Z,79.60
2017-11-08T19:05:50.906Z,80.20
2017-11-08T19:08:19.041Z,80.10
2017-11-08T19:10:47.167Z,80.20
2017-11-08T19:13:15.308Z,80.10
2017-11-08T19:15:43.481Z,80.10
2017-11-08T19:18:11.604Z,80.50
2017-11-08T19:20:40.607Z,80.90
2017-11-08T19:23:08.799Z,80.90
2017-11-08T19:25:36.936Z,81.10
2017-11-08T19:28:05.851Z,80.60
2017-11-08T19:30:33.975Z,80.60
2017-11-08T19:33:02.118Z,80.60
2017-11-08T19:35:30.242Z,80.60
2017-11-08T19:37:58.394Z,80.60
2017-11-08T19:40:27.554Z,80.60
2017-11-08T19:42:56.687Z,80.30
2017-11-08T19:45:24.838Z,80.30
2017-11-08T19:47:53.029Z,80.40
2017-11-08T19:50:21.169Z,80.30
2017-11-08T19:52:49.311Z,80.20
2017-11-08T19:55:18.225Z,79.90
2017-11-08T19:57:46.355Z,79.90
2017-11-08T20:00:14.511Z,80.00
2017-11-08T20:02:42.657Z,79.80
2017-11-08T20:05:10.867Z,80.00
2017-11-08T20:07:38.994Z,79.80
2017-11-08T20:10:07.133Z,80.00
2017-11-08T20:12:35.260Z,79.90
2017-11-08T20:15:03.563Z,79.90
2017-11-08T20:17:31.686Z,80.00
2017-11-08T20:19:59.830Z,80.00
2017-11-08T20:22:27.966Z,80.10
2017-11-08T20:24:56.101Z,80.70
2017-11-08T20:27:24.975Z,80.40
2017-11-08T20:29:53.886Z,80.30
2017-11-08T20:32:22.096Z,80.30
2017-11-08T20:34:50.248Z,80.20
2017-11-08T20:37:18.394Z,80.60
2017-11-08T20:39:47.340Z,79.80
2017-11-08T20:42:15.487Z,79.80
2017-11-08T20:44:43.644Z,79.50
2017-11-08T20:47:12.523Z,80.00
2017-11-08T20:49:41.467Z,80.10
2017-11-08T20:52:09.590Z,80.10
2017-11-08T20:54:38.511Z,80.60
2017-11-08T20:57:06.627Z,80.60
2017-11-08T20:59:34.747Z,80.50
2017-11-08T21:02:02.936Z,81.00
2017-11-08T21:04:31.055Z,80.80
2017-11-08T21:06:59.231Z,80.60
2017-11-08T21:09:27.369Z,81.20
2017-11-08T21:11:55.655Z,81.20
2017-11-08T21:14:23.770Z,80.70
2017-11-08T21:16:52.671Z,79.90
2017-11-08T21:19:21.559Z,79.50
2017-11-08T21:21:50.453Z,79.40
2017-11-08T21:24:19.328Z,79.50
2017-11-08T21:26:47.490Z,79.50
2017-11-08T21:29:15.623Z,79.90
2017-11-08T21:31:43.771Z,79.90
2017-11-08T21:34:11.916Z,79.90
2017-11-08T21:36:40.049Z,79.90
2017-11-08T21:39:08.170Z,79.30
2017-11-08T21:41:37.089Z,79.30
2017-11-08T21:44:05.200Z,79.30
2017-11-08T21:46:33.346Z,80.30
2017-11-08T21:49:01.453Z,81.30
2017-11-08T21:51:29.597Z,81.10
2017-11-08T21:53:57.722Z,80.60
2017-11-08T21:56:25.836Z,80.50
2017-11-08T21:58:53.960Z,80.70
2017-11-08T22:01:22.080Z,81.00
2017-11-08T22:03:50.220Z,80.80
2017-11-08T22:06:19.115Z,80.90
2017-11-08T22:08:48.020Z,81.00
2017-11-08T22:11:16.178Z,81.10
2017-11-08T22:13:45.087Z,80.90
2017-11-08T22:16:13.204Z,80.90
2017-11-08T22:18:41.359Z,80.20
2017-11-08T22:21:09.478Z,79.60
2017-11-08T22:23:37.625Z,79.90
2017-11-08T22:26:05.744Z,79.30
2017-11-08T22:28:34.666Z,79.20
2017-11-08T22:31:02.782Z,79.20
2017-11-08T22:33:30.916Z,80.00
2017-11-08T22:35:59.040Z,80.00
2017-11-08T22:38:27.946Z,79.40
2017-11-08T22:40:56.817Z,78.70
2017-11-08T22:43:24.967Z,78.70
2017-11-08T22:45:53.092Z,77.70
2017-11-08T22:48:21.231Z,78.20
2017-11-08T22:50:49.367Z,78.80
2017-11-08T22:53:17.511Z,79.00
2017-11-08T22:55:45.645Z,79.10
2017-11-08T22:58:13.806Z,79.30
2017-11-08T23:00:41.920Z,79.10
2017-11-08T23:03:10.812Z,79.40
2017-11-08T23:05:39.701Z,79.10
2017-11-08T23:08:08.607Z,78.40
2017-11-08T23:10:36.729Z,78.30
2017-11-08T23:13:04.856Z,78.00
2017-11-08T23:15:33.003Z,78.80
2017-11-08T23:18:01.907Z,78.20
2017-11-08T23:20:30.803Z,78.60
2017-11-08T23:22:59.693Z,78.80
2017-11-08T23:25:28.583Z,78.70
2017-11-08T23:27:57.574Z,78.70
2017-11-08T23:30:26.467Z,78.50
2017-11-08T23:32:55.405Z,78.40
2017-11-08T23:35:23.521Z,78.40
2017-11-08T23:37:52.419Z,78.50
2017-11-08T23:40:21.326Z,78.80
2017-11-08T23:42:49.448Z,78.80
2017-11-08T23:45:17.581Z,79.50
2017-11-08T23:47:45.722Z,79.20
2017-11-08T23:50:13.874Z,79.10
2017-11-08T23:52:41.996Z,79.10
2017-11-08T23:55:10.134Z,78.90
2017-11-08T23:57:38.255Z,79.10
